sensor_id;sensor_type;location;lat;lon;timestamp;temperature;humidity
8420;DHT22;4247;48.550;8.822;2023-09-12T00:00:06;19.80;99.90
8420;DHT22;4247;48.550;8.822;2023-09-12T00:02:32;19.80;99.90
8420;DHT22;4247;48.550;8.822;2023-09-12T00:04:59;19.80;99.90
8420;DHT22;4247;48.550;8.822;2023-09-12T00:07:26;19.80;99.90
8420;DHT22;4247;48.550;8.822;2023-09-12T00:09:53;19.70;99.90
8420;DHT22;4247;48.550;8.822;2023-09-12T00:12:22;19.80;99.90
8420;DHT22;4247;48.550;8.822;2023-09-12T00:14:49;19.70;99.90
8420;DHT22;4247;48.550;8.822;2023-09-12T00:17:17;19.70;99.90
8420;DHT22;4247;48.550;8.822;2023-09-12T00:19:44;19.70;99.90
8420;DHT22;4247;48.550;8.822;2023-09-12T00:22:11;19.70;99.90
8420;DHT22;4247;48.550;8.822;2023-09-12T00:24:38;19.70;99.90
8420;DHT22;4247;48.550;8.822;2023-09-12T00:27:04;19.60;99.90
8420;DHT22;4247;48.550;8.822;2023-09-12T00:29:31;19.60;99.90
8420;DHT22;4247;48.550;8.822;2023-09-12T00:31:58;19.60;99.90
8420;DHT22;4247;48.550;8.822;2023-09-12T00:34:26;19.50;99.90
8420;DHT22;4247;48.550;8.822;2023-09-12T00:36:53;19.50;99.90
8420;DHT22;4247;48.550;8.822;2023-09-12T00:39:19;19.40;99.90
8420;DHT22;4247;48.550;8.822;2023-09-12T00:41:46;19.40;99.90
8420;DHT22;4247;48.550;8.822;2023-09-12T00:44:13;19.40;99.90
8420;DHT22;4247;48.550;8.822;2023-09-12T00:46:40;19.40;99.90
8420;DHT22;4247;48.550;8.822;2023-09-12T00:49:07;19.30;99.90
8420;DHT22;4247;48.550;8.822;2023-09-12T00:51:37;19.30;99.90
8420;DHT22;4247;48.550;8.822;2023-09-12T00:54:04;19.20;99.90
8420;DHT22;4247;48.550;8.822;2023-09-12T00:56:31;19.20;99.90
8420;DHT22;4247;48.550;8.822;2023-09-12T00:58:58;19.20;99.90
8420;DHT22;4247;48.550;8.822;2023-09-12T01:01:25;19.20;99.90
8420;DHT22;4247;48.550;8.822;2023-09-12T01:03:52;19.20;99.90
8420;DHT22;4247;48.550;8.822;2023-09-12T01:06:21;19.20;99.90
8420;DHT22;4247;48.550;8.822;2023-09-12T01:08:52;19.20;99.90
8420;DHT22;4247;48.550;8.822;2023-09-12T01:11:20;19.10;99.90
8420;DHT22;4247;48.550;8.822;2023-09-12T01:13:47;19.10;99.90
8420;DHT22;4247;48.550;8.822;2023-09-12T01:16:13;19.10;99.90
8420;DHT22;4247;48.550;8.822;2023-09-12T01:18:40;19.10;99.90
8420;DHT22;4247;48.550;8.822;2023-09-12T01:21:41;19.00;99.90
8420;DHT22;4247;48.550;8.822;2023-09-12T01:27:27;19.00;99.90
8420;DHT22;4247;48.550;8.822;2023-09-12T01:29:57;19.00;99.90
8420;DHT22;4247;48.550;8.822;2023-09-12T01:32:24;19.00;99.90
8420;DHT22;4247;48.550;8.822;2023-09-12T01:34:50;19.00;99.90
8420;DHT22;4247;48.550;8.822;2023-09-12T01:37:17;19.00;99.90
8420;DHT22;4247;48.550;8.822;2023-09-12T01:39:44;18.90;99.90
8420;DHT22;4247;48.550;8.822;2023-09-12T01:42:14;18.90;99.90
8420;DHT22;4247;48.550;8.822;2023-09-12T01:44:44;18.90;99.90
8420;DHT22;4247;48.550;8.822;2023-09-12T01:47:12;18.90;99.90
8420;DHT22;4247;48.550;8.822;2023-09-12T01:49:42;18.80;99.90
8420;DHT22;4247;48.550;8.822;2023-09-12T01:52:09;18.80;99.90
8420;DHT22;4247;48.550;8.822;2023-09-12T01:54:37;18.70;99.90
8420;DHT22;4247;48.550;8.822;2023-09-12T01:57:05;18.80;99.90
8420;DHT22;4247;48.550;8.822;2023-09-12T01:59:32;18.70;99.90
8420;DHT22;4247;48.550;8.822;2023-09-12T02:02:00;18.70;99.90
8420;DHT22;4247;48.550;8.822;2023-09-12T02:04:27;18.60;99.90
8420;DHT22;4247;48.550;8.822;2023-09-12T02:06:54;18.60;99.90
8420;DHT22;4247;48.550;8.822;2023-09-12T02:09:21;18.60;99.90
8420;DHT22;4247;48.550;8.822;2023-09-12T02:11:48;18.50;99.90
8420;DHT22;4247;48.550;8.822;2023-09-12T02:14:15;18.40;99.90
8420;DHT22;4247;48.550;8.822;2023-09-12T02:16:43;18.40;99.90
8420;DHT22;4247;48.550;8.822;2023-09-12T02:19:11;18.40;99.90
8420;DHT22;4247;48.550;8.822;2023-09-12T02:21:38;18.40;99.90
8420;DHT22;4247;48.550;8.822;2023-09-12T02:24:05;18.30;99.90
8420;DHT22;4247;48.550;8.822;2023-09-12T02:26:32;18.30;99.90
8420;DHT22;4247;48.550;8.822;2023-09-12T02:29:01;18.40;99.90
8420;DHT22;4247;48.550;8.822;2023-09-12T02:31:28;18.40;99.90
8420;DHT22;4247;48.550;8.822;2023-09-12T02:33:55;18.40;99.90
8420;DHT22;4247;48.550;8.822;2023-09-12T02:36:23;18.30;99.90
8420;DHT22;4247;48.550;8.822;2023-09-12T02:38:50;18.30;99.90
8420;DHT22;4247;48.550;8.822;2023-09-12T02:41:16;18.30;99.90
8420;DHT22;4247;48.550;8.822;2023-09-12T02:43:43;18.30;99.90
8420;DHT22;4247;48.550;8.822;2023-09-12T02:46:10;18.30;99.90
8420;DHT22;4247;48.550;8.822;2023-09-12T02:48:36;18.30;99.90
8420;DHT22;4247;48.550;8.822;2023-09-12T02:51:03;18.30;99.90
8420;DHT22;4247;48.550;8.822;2023-09-12T02:53:31;18.30;99.90
8420;DHT22;4247;48.550;8.822;2023-09-12T02:55:58;18.20;99.90
8420;DHT22;4247;48.550;8.822;2023-09-12T02:58:25;18.30;99.90
8420;DHT22;4247;48.550;8.822;2023-09-12T03:00:51;18.20;99.90
8420;DHT22;4247;48.550;8.822;2023-09-12T03:03:19;18.30;99.90
8420;DHT22;4247;48.550;8.822;2023-09-12T03:05:46;18.20;99.90
8420;DHT22;4247;48.550;8.822;2023-09-12T03:08:13;18.20;99.90
8420;DHT22;4247;48.550;8.822;2023-09-12T03:10:41;18.10;99.90
8420;DHT22;4247;48.550;8.822;2023-09-12T03:13:08;18.10;99.90
8420;DHT22;4247;48.550;8.822;2023-09-12T03:15:37;18.10;99.90
8420;DHT22;4247;48.550;8.822;2023-09-12T03:18:04;18.00;99.90
8420;DHT22;4247;48.550;8.822;2023-09-12T03:20:31;18.00;99.90
8420;DHT22;4247;48.550;8.822;2023-09-12T03:22:58;18.00;99.90
8420;DHT22;4247;48.550;8.822;2023-09-12T03:25:25;18.00;99.90
8420;DHT22;4247;48.550;8.822;2023-09-12T03:27:53;18.00;99.90
8420;DHT22;4247;48.550;8.822;2023-09-12T03:30:20;18.00;99.90
8420;DHT22;4247;48.550;8.822;2023-09-12T03:32:46;18.00;99.90
8420;DHT22;4247;48.550;8.822;2023-09-12T03:35:13;18.00;99.90
8420;DHT22;4247;48.550;8.822;2023-09-12T03:37:40;18.00;99.90
8420;DHT22;4247;48.550;8.822;2023-09-12T03:40:09;18.00;99.90
8420;DHT22;4247;48.550;8.822;2023-09-12T03:42:36;18.00;99.90
8420;DHT22;4247;48.550;8.822;2023-09-12T03:45:06;18.00;99.90
8420;DHT22;4247;48.550;8.822;2023-09-12T03:47:32;18.10;99.90
8420;DHT22;4247;48.550;8.822;2023-09-12T03:49:59;18.10;99.90
8420;DHT22;4247;48.550;8.822;2023-09-12T03:52:26;18.10;99.90
8420;DHT22;4247;48.550;8.822;2023-09-12T03:54:53;18.10;99.90
8420;DHT22;4247;48.550;8.822;2023-09-12T03:57:20;18.10;99.90
8420;DHT22;4247;48.550;8.822;2023-09-12T03:59:47;18.10;99.90
8420;DHT22;4247;48.550;8.822;2023-09-12T04:02:15;18.10;99.90
8420;DHT22;4247;48.550;8.822;2023-09-12T04:04:41;18.00;99.90
8420;DHT22;4247;48.550;8.822;2023-09-12T04:07:08;18.10;99.90
8420;DHT22;4247;48.550;8.822;2023-09-12T04:09:35;18.10;99.90
8420;DHT22;4247;48.550;8.822;2023-09-12T04:12:01;18.10;99.90
8420;DHT22;4247;48.550;8.822;2023-09-12T04:14:28;18.10;99.90
8420;DHT22;4247;48.550;8.822;2023-09-12T04:16:55;18.10;99.90
8420;DHT22;4247;48.550;8.822;2023-09-12T04:19:23;18.10;99.90
8420;DHT22;4247;48.550;8.822;2023-09-12T04:21:50;18.10;99.90
8420;DHT22;4247;48.550;8.822;2023-09-12T04:24:16;18.10;99.90
8420;DHT22;4247;48.550;8.822;2023-09-12T04:26:43;18.10;99.90
8420;DHT22;4247;48.550;8.822;2023-09-12T04:29:10;18.20;99.90
8420;DHT22;4247;48.550;8.822;2023-09-12T04:31:37;18.20;99.90
8420;DHT22;4247;48.550;8.822;2023-09-12T04:34:04;18.20;99.90
8420;DHT22;4247;48.550;8.822;2023-09-12T04:36:32;18.20;99.90
8420;DHT22;4247;48.550;8.822;2023-09-12T04:38:59;18.20;99.90
8420;DHT22;4247;48.550;8.822;2023-09-12T04:41:26;18.30;99.90
8420;DHT22;4247;48.550;8.822;2023-09-12T04:43:52;18.20;99.90
8420;DHT22;4247;48.550;8.822;2023-09-12T04:46:19;18.20;99.90
8420;DHT22;4247;48.550;8.822;2023-09-12T04:48:46;18.30;99.90
8420;DHT22;4247;48.550;8.822;2023-09-12T04:51:13;18.30;99.90
8420;DHT22;4247;48.550;8.822;2023-09-12T04:53:41;18.30;99.90
8420;DHT22;4247;48.550;8.822;2023-09-12T04:56:07;18.30;99.90
8420;DHT22;4247;48.550;8.822;2023-09-12T04:58:35;18.30;99.90
8420;DHT22;4247;48.550;8.822;2023-09-12T05:01:02;18.40;99.90
8420;DHT22;4247;48.550;8.822;2023-09-12T05:03:28;18.40;99.90
8420;DHT22;4247;48.550;8.822;2023-09-12T05:05:55;18.40;99.90
8420;DHT22;4247;48.550;8.822;2023-09-12T05:08:22;18.40;99.90
8420;DHT22;4247;48.550;8.822;2023-09-12T05:10:51;18.50;99.90
8420;DHT22;4247;48.550;8.822;2023-09-12T05:13:17;18.50;99.90
8420;DHT22;4247;48.550;8.822;2023-09-12T05:15:44;18.50;99.90
8420;DHT22;4247;48.550;8.822;2023-09-12T05:18:11;18.50;99.90
8420;DHT22;4247;48.550;8.822;2023-09-12T05:20:37;18.50;99.90
8420;DHT22;4247;48.550;8.822;2023-09-12T05:23:05;18.60;99.90
8420;DHT22;4247;48.550;8.822;2023-09-12T05:25:32;18.60;99.90
8420;DHT22;4247;48.550;8.822;2023-09-12T05:28:00;18.70;99.90
8420;DHT22;4247;48.550;8.822;2023-09-12T05:30:26;18.70;99.90
8420;DHT22;4247;48.550;8.822;2023-09-12T05:32:53;18.80;99.90
8420;DHT22;4247;48.550;8.822;2023-09-12T05:35:20;18.90;99.90
8420;DHT22;4247;48.550;8.822;2023-09-12T05:37:46;18.90;99.90
8420;DHT22;4247;48.550;8.822;2023-09-12T05:40:13;19.00;99.90
8420;DHT22;4247;48.550;8.822;2023-09-12T05:42:40;19.00;99.90
8420;DHT22;4247;48.550;8.822;2023-09-12T05:45:08;19.10;99.90
8420;DHT22;4247;48.550;8.822;2023-09-12T05:47:35;19.20;99.90
8420;DHT22;4247;48.550;8.822;2023-09-12T05:50:02;19.20;99.90
8420;DHT22;4247;48.550;8.822;2023-09-12T05:52:31;19.30;99.90
8420;DHT22;4247;48.550;8.822;2023-09-12T05:54:58;19.40;99.90
8420;DHT22;4247;48.550;8.822;2023-09-12T05:57:24;19.40;99.90
8420;DHT22;4247;48.550;8.822;2023-09-12T05:59:51;19.40;99.90
8420;DHT22;4247;48.550;8.822;2023-09-12T06:02:19;19.50;99.90
8420;DHT22;4247;48.550;8.822;2023-09-12T06:04:46;19.50;99.90
8420;DHT22;4247;48.550;8.822;2023-09-12T06:07:13;19.60;99.90
8420;DHT22;4247;48.550;8.822;2023-09-12T06:09:39;19.60;99.90
8420;DHT22;4247;48.550;8.822;2023-09-12T06:12:06;19.70;99.90
8420;DHT22;4247;48.550;8.822;2023-09-12T06:14:33;19.70;99.90
8420;DHT22;4247;48.550;8.822;2023-09-12T06:17:00;19.70;99.90
8420;DHT22;4247;48.550;8.822;2023-09-12T06:19:28;19.80;99.90
8420;DHT22;4247;48.550;8.822;2023-09-12T06:21:55;19.90;99.90
8420;DHT22;4247;48.550;8.822;2023-09-12T06:24:22;19.90;99.90
8420;DHT22;4247;48.550;8.822;2023-09-12T06:26:49;20.00;99.90
8420;DHT22;4247;48.550;8.822;2023-09-12T06:29:17;20.10;99.90
8420;DHT22;4247;48.550;8.822;2023-09-12T06:31:44;20.10;99.90
8420;DHT22;4247;48.550;8.822;2023-09-12T06:34:10;20.20;99.90
8420;DHT22;4247;48.550;8.822;2023-09-12T06:36:39;20.20;99.90
8420;DHT22;4247;48.550;8.822;2023-09-12T06:39:07;20.30;99.90
8420;DHT22;4247;48.550;8.822;2023-09-12T06:41:34;20.40;99.90
8420;DHT22;4247;48.550;8.822;2023-09-12T06:44:01;20.50;99.90
8420;DHT22;4247;48.550;8.822;2023-09-12T06:46:29;20.60;99.90
8420;DHT22;4247;48.550;8.822;2023-09-12T06:48:56;20.70;99.90
8420;DHT22;4247;48.550;8.822;2023-09-12T06:51:24;20.80;99.90
8420;DHT22;4247;48.550;8.822;2023-09-12T06:53:52;20.90;99.90
8420;DHT22;4247;48.550;8.822;2023-09-12T06:56:19;21.00;99.90
8420;DHT22;4247;48.550;8.822;2023-09-12T06:58:47;21.10;99.90
8420;DHT22;4247;48.550;8.822;2023-09-12T07:01:14;21.20;99.90
8420;DHT22;4247;48.550;8.822;2023-09-12T07:03:40;21.40;99.90
8420;DHT22;4247;48.550;8.822;2023-09-12T07:06:07;21.50;99.90
8420;DHT22;4247;48.550;8.822;2023-09-12T07:08:34;21.70;99.90
8420;DHT22;4247;48.550;8.822;2023-09-12T07:11:04;21.80;99.90
8420;DHT22;4247;48.550;8.822;2023-09-12T07:13:31;22.00;99.90
8420;DHT22;4247;48.550;8.822;2023-09-12T07:15:59;22.10;99.90
8420;DHT22;4247;48.550;8.822;2023-09-12T07:18:29;22.30;99.90
8420;DHT22;4247;48.550;8.822;2023-09-12T07:20:59;22.50;99.90
8420;DHT22;4247;48.550;8.822;2023-09-12T07:23:25;22.60;99.90
8420;DHT22;4247;48.550;8.822;2023-09-12T07:25:53;22.60;99.90
8420;DHT22;4247;48.550;8.822;2023-09-12T07:28:22;22.80;99.90
8420;DHT22;4247;48.550;8.822;2023-09-12T07:30:48;22.80;99.90
8420;DHT22;4247;48.550;8.822;2023-09-12T07:33:15;22.90;99.90
8420;DHT22;4247;48.550;8.822;2023-09-12T07:35:42;23.10;99.90
8420;DHT22;4247;48.550;8.822;2023-09-12T07:38:09;23.30;99.90
8420;DHT22;4247;48.550;8.822;2023-09-12T07:40:35;23.30;99.90
8420;DHT22;4247;48.550;8.822;2023-09-12T07:43:02;23.40;99.90
8420;DHT22;4247;48.550;8.822;2023-09-12T07:45:30;23.50;99.90
8420;DHT22;4247;48.550;8.822;2023-09-12T07:47:57;23.60;99.90
8420;DHT22;4247;48.550;8.822;2023-09-12T07:50:24;23.60;99.90
8420;DHT22;4247;48.550;8.822;2023-09-12T07:52:50;23.70;99.90
8420;DHT22;4247;48.550;8.822;2023-09-12T07:55:17;23.80;99.90
8420;DHT22;4247;48.550;8.822;2023-09-12T07:57:44;23.90;99.90
8420;DHT22;4247;48.550;8.822;2023-09-12T08:00:12;24.10;99.90
8420;DHT22;4247;48.550;8.822;2023-09-12T08:02:40;24.10;99.90
8420;DHT22;4247;48.550;8.822;2023-09-12T08:05:07;24.30;99.90
8420;DHT22;4247;48.550;8.822;2023-09-12T08:07:34;24.40;99.90
8420;DHT22;4247;48.550;8.822;2023-09-12T08:10:01;24.40;99.90
8420;DHT22;4247;48.550;8.822;2023-09-12T08:12:29;24.50;99.90
8420;DHT22;4247;48.550;8.822;2023-09-12T08:14:56;24.60;99.90
8420;DHT22;4247;48.550;8.822;2023-09-12T08:17:24;24.70;99.90
8420;DHT22;4247;48.550;8.822;2023-09-12T08:19:52;24.70;99.90
8420;DHT22;4247;48.550;8.822;2023-09-12T08:22:19;24.80;99.90
8420;DHT22;4247;48.550;8.822;2023-09-12T08:24:46;24.90;99.90
8420;DHT22;4247;48.550;8.822;2023-09-12T08:27:12;25.00;99.90
8420;DHT22;4247;48.550;8.822;2023-09-12T08:29:39;25.10;99.90
8420;DHT22;4247;48.550;8.822;2023-09-12T08:32:06;25.20;99.90
8420;DHT22;4247;48.550;8.822;2023-09-12T08:34:33;25.30;99.90
8420;DHT22;4247;48.550;8.822;2023-09-12T08:37:01;25.40;99.90
8420;DHT22;4247;48.550;8.822;2023-09-12T08:39:36;25.50;99.90
8420;DHT22;4247;48.550;8.822;2023-09-12T08:42:07;25.60;99.90
8420;DHT22;4247;48.550;8.822;2023-09-12T08:44:35;25.70;99.90
8420;DHT22;4247;48.550;8.822;2023-09-12T08:47:02;25.70;99.90
8420;DHT22;4247;48.550;8.822;2023-09-12T08:49:31;25.80;99.90
8420;DHT22;4247;48.550;8.822;2023-09-12T08:52:01;25.80;99.90
8420;DHT22;4247;48.550;8.822;2023-09-12T08:54:28;25.90;99.90
8420;DHT22;4247;48.550;8.822;2023-09-12T08:56:54;25.90;99.90
8420;DHT22;4247;48.550;8.822;2023-09-12T08:59:21;26.00;99.90
8420;DHT22;4247;48.550;8.822;2023-09-12T09:01:49;26.10;99.90
8420;DHT22;4247;48.550;8.822;2023-09-12T09:04:18;26.10;99.90
8420;DHT22;4247;48.550;8.822;2023-09-12T09:06:45;26.20;99.90
8420;DHT22;4247;48.550;8.822;2023-09-12T09:09:14;26.20;99.90
8420;DHT22;4247;48.550;8.822;2023-09-12T09:11:41;26.30;99.90
8420;DHT22;4247;48.550;8.822;2023-09-12T09:14:07;26.40;99.90
8420;DHT22;4247;48.550;8.822;2023-09-12T09:16:35;26.50;99.90
8420;DHT22;4247;48.550;8.822;2023-09-12T09:19:04;26.50;99.90
8420;DHT22;4247;48.550;8.822;2023-09-12T09:21:32;26.50;99.90
8420;DHT22;4247;48.550;8.822;2023-09-12T09:24:02;26.50;99.90
8420;DHT22;4247;48.550;8.822;2023-09-12T09:26:42;26.50;99.90
8420;DHT22;4247;48.550;8.822;2023-09-12T09:29:10;26.60;99.90
8420;DHT22;4247;48.550;8.822;2023-09-12T09:31:40;26.60;99.90
8420;DHT22;4247;48.550;8.822;2023-09-12T09:34:11;26.70;99.90
8420;DHT22;4247;48.550;8.822;2023-09-12T09:36:41;26.80;99.90
8420;DHT22;4247;48.550;8.822;2023-09-12T09:39:08;26.70;99.90
8420;DHT22;4247;48.550;8.822;2023-09-12T09:41:36;26.60;99.90
8420;DHT22;4247;48.550;8.822;2023-09-12T09:44:05;26.60;99.90
8420;DHT22;4247;48.550;8.822;2023-09-12T09:46:31;26.60;99.90
8420;DHT22;4247;48.550;8.822;2023-09-12T09:48:58;26.60;99.90
8420;DHT22;4247;48.550;8.822;2023-09-12T09:51:26;26.60;99.90
8420;DHT22;4247;48.550;8.822;2023-09-12T09:53:53;26.70;99.90
8420;DHT22;4247;48.550;8.822;2023-09-12T09:56:24;26.80;99.90
8420;DHT22;4247;48.550;8.822;2023-09-12T09:58:52;26.80;99.90
8420;DHT22;4247;48.550;8.822;2023-09-12T10:01:21;26.90;99.80
8420;DHT22;4247;48.550;8.822;2023-09-12T10:03:49;26.90;99.90
8420;DHT22;4247;48.550;8.822;2023-09-12T10:06:17;26.90;99.00
8420;DHT22;4247;48.550;8.822;2023-09-12T10:08:45;27.00;99.90
8420;DHT22;4247;48.550;8.822;2023-09-12T10:11:14;27.00;99.90
8420;DHT22;4247;48.550;8.822;2023-09-12T10:13:45;27.00;99.90
8420;DHT22;4247;48.550;8.822;2023-09-12T10:16:13;27.00;99.00
8420;DHT22;4247;48.550;8.822;2023-09-12T10:18:53;27.00;99.40
8420;DHT22;4247;48.550;8.822;2023-09-12T10:21:27;27.00;98.40
8420;DHT22;4247;48.550;8.822;2023-09-12T10:23:56;27.10;99.40
8420;DHT22;4247;48.550;8.822;2023-09-12T10:26:24;27.10;99.90
8420;DHT22;4247;48.550;8.822;2023-09-12T10:28:51;27.10;99.90
8420;DHT22;4247;48.550;8.822;2023-09-12T10:31:19;27.10;99.90
8420;DHT22;4247;48.550;8.822;2023-09-12T10:33:49;27.10;99.90
8420;DHT22;4247;48.550;8.822;2023-09-12T10:36:18;27.20;99.00
8420;DHT22;4247;48.550;8.822;2023-09-12T10:38:47;27.20;99.90
8420;DHT22;4247;48.550;8.822;2023-09-12T10:41:15;27.20;99.60
8420;DHT22;4247;48.550;8.822;2023-09-12T10:43:44;27.20;98.10
8420;DHT22;4247;48.550;8.822;2023-09-12T10:46:13;27.30;97.90
8420;DHT22;4247;48.550;8.822;2023-09-12T10:48:39;27.20;98.00
8420;DHT22;4247;48.550;8.822;2023-09-12T10:51:08;27.30;97.50
8420;DHT22;4247;48.550;8.822;2023-09-12T10:53:36;27.30;98.20
8420;DHT22;4247;48.550;8.822;2023-09-12T10:56:15;27.30;94.30
8420;DHT22;4247;48.550;8.822;2023-09-12T10:59:10;27.30;97.90
8420;DHT22;4247;48.550;8.822;2023-09-12T11:01:38;27.40;98.20
8420;DHT22;4247;48.550;8.822;2023-09-12T11:04:29;27.50;98.20
8420;DHT22;4247;48.550;8.822;2023-09-12T11:07:00;27.50;96.00
8420;DHT22;4247;48.550;8.822;2023-09-12T11:09:27;27.60;95.30
8420;DHT22;4247;48.550;8.822;2023-09-12T11:11:59;27.60;96.50
8420;DHT22;4247;48.550;8.822;2023-09-12T11:14:28;27.60;94.20
8420;DHT22;4247;48.550;8.822;2023-09-12T11:17:22;27.60;95.10
8420;DHT22;4247;48.550;8.822;2023-09-12T11:19:50;27.60;94.00
8420;DHT22;4247;48.550;8.822;2023-09-12T11:22:24;27.60;96.90
8420;DHT22;4247;48.550;8.822;2023-09-12T11:24:51;27.70;95.00
8420;DHT22;4247;48.550;8.822;2023-09-12T11:27:18;27.80;95.60
8420;DHT22;4247;48.550;8.822;2023-09-12T11:29:45;27.80;94.90
8420;DHT22;4247;48.550;8.822;2023-09-12T11:32:25;27.90;95.10
8420;DHT22;4247;48.550;8.822;2023-09-12T11:34:52;27.90;93.90
8420;DHT22;4247;48.550;8.822;2023-09-12T11:37:24;28.10;92.40
8420;DHT22;4247;48.550;8.822;2023-09-12T11:39:51;28.10;93.80
8420;DHT22;4247;48.550;8.822;2023-09-12T11:42:19;28.20;94.00
8420;DHT22;4247;48.550;8.822;2023-09-12T11:44:49;28.20;94.20
8420;DHT22;4247;48.550;8.822;2023-09-12T11:47:17;28.30;94.40
8420;DHT22;4247;48.550;8.822;2023-09-12T11:49:44;28.40;93.20
8420;DHT22;4247;48.550;8.822;2023-09-12T11:52:12;28.50;92.20
8420;DHT22;4247;48.550;8.822;2023-09-12T11:54:41;28.50;92.30
8420;DHT22;4247;48.550;8.822;2023-09-12T11:57:09;28.50;94.50
8420;DHT22;4247;48.550;8.822;2023-09-12T11:59:41;28.50;93.30
8420;DHT22;4247;48.550;8.822;2023-09-12T12:02:09;28.50;92.30
8420;DHT22;4247;48.550;8.822;2023-09-12T12:04:36;28.50;93.60
8420;DHT22;4247;48.550;8.822;2023-09-12T12:07:03;28.50;91.90
8420;DHT22;4247;48.550;8.822;2023-09-12T12:09:30;28.40;94.40
8420;DHT22;4247;48.550;8.822;2023-09-12T12:12:03;28.40;92.40
8420;DHT22;4247;48.550;8.822;2023-09-12T12:14:33;28.50;92.50
8420;DHT22;4247;48.550;8.822;2023-09-12T12:17:06;28.50;91.40
8420;DHT22;4247;48.550;8.822;2023-09-12T12:19:33;28.60;91.70
8420;DHT22;4247;48.550;8.822;2023-09-12T12:22:00;28.60;91.90
8420;DHT22;4247;48.550;8.822;2023-09-12T12:24:36;28.60;92.00
8420;DHT22;4247;48.550;8.822;2023-09-12T12:27:04;28.70;89.50
8420;DHT22;4247;48.550;8.822;2023-09-12T12:29:33;28.70;88.00
8420;DHT22;4247;48.550;8.822;2023-09-12T12:32:00;28.80;88.10
8420;DHT22;4247;48.550;8.822;2023-09-12T12:34:27;28.70;90.50
8420;DHT22;4247;48.550;8.822;2023-09-12T12:36:53;28.70;90.10
8420;DHT22;4247;48.550;8.822;2023-09-12T12:39:20;28.70;91.70
8420;DHT22;4247;48.550;8.822;2023-09-12T12:41:47;28.80;90.70
8420;DHT22;4247;48.550;8.822;2023-09-12T12:44:16;28.90;91.50
8420;DHT22;4247;48.550;8.822;2023-09-12T12:46:49;28.90;90.00
8420;DHT22;4247;48.550;8.822;2023-09-12T12:49:17;29.00;91.10
8420;DHT22;4247;48.550;8.822;2023-09-12T12:51:44;29.10;90.50
8420;DHT22;4247;48.550;8.822;2023-09-12T12:54:11;29.10;89.00
8420;DHT22;4247;48.550;8.822;2023-09-12T12:56:39;29.20;88.90
8420;DHT22;4247;48.550;8.822;2023-09-12T12:59:07;29.30;89.00
8420;DHT22;4247;48.550;8.822;2023-09-12T13:01:36;29.30;90.00
8420;DHT22;4247;48.550;8.822;2023-09-12T13:04:05;29.40;90.00
8420;DHT22;4247;48.550;8.822;2023-09-12T13:06:32;29.50;86.40
8420;DHT22;4247;48.550;8.822;2023-09-12T13:09:02;29.50;90.70
8420;DHT22;4247;48.550;8.822;2023-09-12T13:11:31;29.50;86.90
8420;DHT22;4247;48.550;8.822;2023-09-12T13:13:59;29.50;90.00
8420;DHT22;4247;48.550;8.822;2023-09-12T13:16:26;29.50;85.20
8420;DHT22;4247;48.550;8.822;2023-09-12T13:18:55;29.40;85.00
8420;DHT22;4247;48.550;8.822;2023-09-12T13:21:22;29.40;90.30
8420;DHT22;4247;48.550;8.822;2023-09-12T13:23:49;29.40;83.20
8420;DHT22;4247;48.550;8.822;2023-09-12T13:26:15;29.30;87.90
8420;DHT22;4247;48.550;8.822;2023-09-12T13:28:42;29.30;85.70
8420;DHT22;4247;48.550;8.822;2023-09-12T13:31:09;29.20;80.50
8420;DHT22;4247;48.550;8.822;2023-09-12T13:33:36;29.20;82.20
8420;DHT22;4247;48.550;8.822;2023-09-12T13:36:04;29.10;78.40
8420;DHT22;4247;48.550;8.822;2023-09-12T13:38:31;29.10;82.50
8420;DHT22;4247;48.550;8.822;2023-09-12T13:40:58;29.10;85.30
8420;DHT22;4247;48.550;8.822;2023-09-12T13:43:24;29.00;84.80
8420;DHT22;4247;48.550;8.822;2023-09-12T13:45:51;29.00;84.10
8420;DHT22;4247;48.550;8.822;2023-09-12T13:48:18;28.90;85.30
8420;DHT22;4247;48.550;8.822;2023-09-12T13:50:45;28.90;89.00
8420;DHT22;4247;48.550;8.822;2023-09-12T13:53:13;28.90;87.10
8420;DHT22;4247;48.550;8.822;2023-09-12T13:55:40;28.90;84.40
8420;DHT22;4247;48.550;8.822;2023-09-12T13:58:07;28.90;87.80
8420;DHT22;4247;48.550;8.822;2023-09-12T14:00:34;28.90;83.30
8420;DHT22;4247;48.550;8.822;2023-09-12T14:03:01;28.90;89.20
8420;DHT22;4247;48.550;8.822;2023-09-12T14:05:28;28.80;89.60
8420;DHT22;4247;48.550;8.822;2023-09-12T14:07:55;28.80;91.20
8420;DHT22;4247;48.550;8.822;2023-09-12T14:10:23;28.80;90.10
8420;DHT22;4247;48.550;8.822;2023-09-12T14:12:50;28.70;90.60
8420;DHT22;4247;48.550;8.822;2023-09-12T14:15:17;28.70;90.30
8420;DHT22;4247;48.550;8.822;2023-09-12T14:17:44;28.70;91.20
8420;DHT22;4247;48.550;8.822;2023-09-12T14:20:11;28.70;90.60
8420;DHT22;4247;48.550;8.822;2023-09-12T14:22:41;28.70;91.40
8420;DHT22;4247;48.550;8.822;2023-09-12T14:25:09;28.70;92.90
8420;DHT22;4247;48.550;8.822;2023-09-12T14:27:41;28.70;92.40
8420;DHT22;4247;48.550;8.822;2023-09-12T14:30:10;28.80;92.10
8420;DHT22;4247;48.550;8.822;2023-09-12T14:32:37;28.80;91.40
8420;DHT22;4247;48.550;8.822;2023-09-12T14:35:04;28.80;91.60
8420;DHT22;4247;48.550;8.822;2023-09-12T14:37:31;28.80;91.10
8420;DHT22;4247;48.550;8.822;2023-09-12T14:39:58;28.80;92.90
8420;DHT22;4247;48.550;8.822;2023-09-12T14:42:25;28.80;91.60
8420;DHT22;4247;48.550;8.822;2023-09-12T14:44:55;28.90;92.40
8420;DHT22;4247;48.550;8.822;2023-09-12T14:47:22;28.90;92.10
8420;DHT22;4247;48.550;8.822;2023-09-12T14:49:49;28.90;92.90
8420;DHT22;4247;48.550;8.822;2023-09-12T14:52:16;29.00;92.10
8420;DHT22;4247;48.550;8.822;2023-09-12T14:54:43;29.00;90.60
8420;DHT22;4247;48.550;8.822;2023-09-12T14:57:10;29.00;92.30
8420;DHT22;4247;48.550;8.822;2023-09-12T14:59:36;29.10;92.00
8420;DHT22;4247;48.550;8.822;2023-09-12T15:02:05;29.10;91.20
8420;DHT22;4247;48.550;8.822;2023-09-12T15:04:32;29.10;91.80
8420;DHT22;4247;48.550;8.822;2023-09-12T15:06:58;29.10;92.40
8420;DHT22;4247;48.550;8.822;2023-09-12T15:09:25;29.20;91.40
8420;DHT22;4247;48.550;8.822;2023-09-12T15:11:52;29.10;91.10
8420;DHT22;4247;48.550;8.822;2023-09-12T15:14:19;29.10;91.80
8420;DHT22;4247;48.550;8.822;2023-09-12T15:16:46;29.10;92.70
8420;DHT22;4247;48.550;8.822;2023-09-12T15:19:15;29.00;91.10
8420;DHT22;4247;48.550;8.822;2023-09-12T15:21:42;29.00;92.30
8420;DHT22;4247;48.550;8.822;2023-09-12T15:24:08;28.90;92.90
8420;DHT22;4247;48.550;8.822;2023-09-12T15:26:35;28.80;92.40
8420;DHT22;4247;48.550;8.822;2023-09-12T15:29:02;28.80;93.30
8420;DHT22;4247;48.550;8.822;2023-09-12T15:31:29;28.70;92.70
8420;DHT22;4247;48.550;8.822;2023-09-12T15:33:56;28.70;93.30
8420;DHT22;4247;48.550;8.822;2023-09-12T15:36:24;28.70;93.70
8420;DHT22;4247;48.550;8.822;2023-09-12T15:38:50;28.60;93.40
8420;DHT22;4247;48.550;8.822;2023-09-12T15:41:17;28.50;93.60
8420;DHT22;4247;48.550;8.822;2023-09-12T15:43:44;28.50;93.40
8420;DHT22;4247;48.550;8.822;2023-09-12T15:46:11;28.50;93.60
8420;DHT22;4247;48.550;8.822;2023-09-12T15:48:38;28.50;94.10
8420;DHT22;4247;48.550;8.822;2023-09-12T15:51:04;28.50;94.10
8420;DHT22;4247;48.550;8.822;2023-09-12T15:53:32;28.50;93.40
8420;DHT22;4247;48.550;8.822;2023-09-12T15:55:59;28.50;93.50
8420;DHT22;4247;48.550;8.822;2023-09-12T15:58:26;28.50;93.60
8420;DHT22;4247;48.550;8.822;2023-09-12T16:00:54;28.40;94.40
8420;DHT22;4247;48.550;8.822;2023-09-12T16:03:23;28.40;94.30
8420;DHT22;4247;48.550;8.822;2023-09-12T16:05:50;28.40;95.30
8420;DHT22;4247;48.550;8.822;2023-09-12T16:08:16;28.40;95.50